Time;durP1;ratioP1;P1;durP2;ratioP2;P2;SDS_P1;SDS_P2;PMS_P1;PMS_P2;Temp;Humidity;BMP_temperature;BMP_pressure;BME280_temperature;BME280_humidity;BME280_pressure;Samples;Min_cycle;Max_cycle;Signal;HPM_P1;HPM_P2
2023/10/12 00:01:58;;;;;;;1.10;0.63;;;13.40;99.90;;;;;;4976567;28;20043;-83
2023/10/12 00:04:35;;;;;;;0.10;0.00;;;13.40;99.90;;;;;;4961842;28;20229;-83
2023/10/12 00:07:15;;;;;;;1.08;0.10;;;13.40;99.90;;;;;;4959716;28;20053;-83
2023/10/12 00:10:19;;;;;;;0.73;0.00;;;13.30;99.90;;;;;;4961345;28;20074;-84
2023/10/12 00:12:37;;;;;;;;;;;13.30;99.90;;;;;;4962014;28;20113;-84
2023/10/12 00:15:16;;;;;;;1.10;0.10;;;13.30;99.90;;;;;;4961699;28;19918;-84
2023/10/12 00:17:42;;;;;;;0.05;0.03;;;13.20;99.90;;;;;;4954099;28;20078;-85
2023/10/12 00:20:12;;;;;;;0.38;0.10;;;13.30;99.90;;;;;;4936902;28;20105;-86
2023/10/12 00:22:37;;;;;;;1.20;0.38;;;13.20;99.90;;;;;;4950074;28;20673;-86
2023/10/12 00:25:04;;;;;;;0.22;0.08;;;13.30;99.90;;;;;;4941753;28;20126;-86
2023/10/12 00:27:33;;;;;;;0.20;0.10;;;13.20;99.90;;;;;;4956126;28;20399;-85
2023/10/12 00:30:00;;;;;;;0.43;0.10;;;13.30;99.90;;;;;;4943062;28;20038;-86
2023/10/12 00:32:26;;;;;;;1.15;0.08;;;13.30;99.90;;;;;;4956423;28;20039;-86
2023/10/12 00:34:53;;;;;;;1.05;0.20;;;13.20;99.90;;;;;;4958272;28;20039;-87
2023/10/12 00:37:18;;;;;;;0.00;0.00;;;13.20;99.90;;;;;;4943496;28;20035;-87
2023/10/12 00:42:33;;;;;;;0.43;0.03;;;13.30;99.90;;;;;;4971237;28;20061;-85
2023/10/12 00:45:14;;;;;;;2.83;0.22;;;13.20;99.90;;;;;;4977940;28;20042;-85
2023/10/12 00:47:51;;;;;;;0.63;0.10;;;13.30;99.90;;;;;;4977448;28;20054;-85
2023/10/12 00:50:17;;;;;;;0.10;0.00;;;13.30;99.90;;;;;;4957067;28;20066;-85
2023/10/12 00:52:57;;;;;;;2.10;0.22;;;13.30;99.90;;;;;;4979901;28;20070;-85
2023/10/12 00:55:35;;;;;;;0.15;0.10;;;13.30;99.90;;;;;;4972068;28;20046;-85
2023/10/12 00:58:05;;;;;;;1.23;0.28;;;13.30;99.90;;;;;;4962207;28;20045;-85
2023/10/12 01:00:43;;;;;;;1.77;0.35;;;13.20;99.90;;;;;;4966367;28;20049;-84
2023/10/12 01:03:53;;;;;;;0.60;0.10;;;13.20;99.90;;;;;;4976785;28;20045;-84
2023/10/12 01:06:13;;;;;;;3.15;0.28;;;13.20;99.90;;;;;;4964613;28;20046;-83
2023/10/12 01:08:43;;;;;;;0.63;0.20;;;13.20;99.90;;;;;;4967186;28;20050;-84
2023/10/12 01:11:21;;;;;;;0.40;0.13;;;13.30;99.90;;;;;;4980761;28;20042;-84
2023/10/12 01:13:49;;;;;;;1.70;0.20;;;13.20;99.90;;;;;;4981709;28;20580;-84
2023/10/12 01:16:23;;;;;;;3.97;0.25;;;13.20;99.90;;;;;;4984530;28;20037;-83
2023/10/12 01:18:56;;;;;;;0.55;0.00;;;13.20;99.90;;;;;;4983568;28;20047;-83
2023/10/12 01:21:22;;;;;;;0.00;0.00;;;13.20;99.90;;;;;;4984382;28;20126;-83
2023/10/12 01:23:51;;;;;;;1.90;0.38;;;13.20;99.90;;;;;;4988550;28;20081;-83
2023/10/12 01:26:19;;;;;;;2.70;0.30;;;13.20;99.90;;;;;;4965418;28;20042;-83
2023/10/12 01:28:49;;;;;;;0.05;0.00;;;13.20;99.90;;;;;;4984495;28;20045;-83
2023/10/12 01:31:24;;;;;;;0.08;0.03;;;13.20;99.90;;;;;;4968415;28;20558;-83
2023/10/12 01:33:54;;;;;;;0.03;0.00;;;13.20;99.90;;;;;;4972265;28;20480;-83
2023/10/12 01:36:27;;;;;;;1.10;0.30;;;13.10;99.90;;;;;;4966870;28;20084;-83
2023/10/12 01:39:10;;;;;;;0.22;0.05;;;13.10;99.90;;;;;;4976825;28;20518;-83
2023/10/12 01:41:37;;;;;;;3.38;0.60;;;13.10;99.90;;;;;;4966273;28;20046;-85
2023/10/12 01:44:10;;;;;;;5.22;0.60;;;13.10;99.90;;;;;;4951811;28;20050;-84
2023/10/12 01:46:36;;;;;;;0.40;0.13;;;13.10;99.90;;;;;;4955626;28;20035;-85
2023/10/12 01:49:01;;;;;;;0.20;0.10;;;13.10;99.90;;;;;;4976092;28;20070;-85
2023/10/12 01:51:29;;;;;;;0.00;0.00;;;13.20;99.90;;;;;;4958167;28;20486;-84
2023/10/12 01:53:56;;;;;;;0.68;0.10;;;13.10;99.90;;;;;;4971901;28;20105;-86
2023/10/12 01:56:27;;;;;;;0.88;0.10;;;13.10;99.90;;;;;;4957143;28;20049;-86
2023/10/12 01:58:53;;;;;;;0.55;0.20;;;13.10;99.90;;;;;;4955577;28;20044;-85
2023/10/12 02:01:18;;;;;;;1.48;0.20;;;13.10;99.90;;;;;;4964636;28;20446;-85
2023/10/12 02:03:44;;;;;;;0.17;0.10;;;13.10;99.90;;;;;;4956531;28;20049;-85
2023/10/12 02:06:24;;;;;;;0.68;0.10;;;13.10;99.90;;;;;;4951004;28;20126;-84
2023/10/12 02:08:52;;;;;;;3.22;0.17;;;13.10;99.90;;;;;;4946030;28;20070;-84
2023/10/12 02:13:50;;;;;;;4.05;0.40;;;13.10;99.90;;;;;;4972577;28;20077;-84
2023/10/12 02:18:57;;;;;;;0.65;0.30;;;13.10;99.90;;;;;;4984845;28;20507;-84
2023/10/12 02:21:25;;;;;;;3.55;0.52;;;13.10;99.90;;;;;;4978910;28;20095;-84
2023/10/12 02:31:55;;;;;;;2.83;0.25;;;13.10;99.90;;;;;;4972779;28;20050;-84
2023/10/12 02:34:25;;;;;;;1.40;0.43;;;13.10;99.90;;;;;;4964953;28;20038;-84
2023/10/12 02:39:40;;;;;;;0.20;0.10;;;13.10;99.90;;;;;;4966668;28;20093;-84
2023/10/12 02:42:17;;;;;;;0.85;0.20;;;13.10;99.90;;;;;;4930735;29;20054;-84
2023/10/12 02:47:22;;;;;;;2.22;0.57;;;13.10;99.90;;;;;;4971064;28;20125;-85
2023/10/12 02:49:49;;;;;;;0.40;0.20;;;13.00;99.90;;;;;;4952089;28;20078;-84
2023/10/12 02:52:16;;;;;;;0.20;0.20;;;13.00;99.90;;;;;;4945809;28;20074;-84
2023/10/12 02:54:51;;;;;;;0.20;0.10;;;13.10;99.90;;;;;;4948405;28;20141;-85
2023/10/12 02:57:25;;;;;;;1.13;0.35;;;13.00;99.90;;;;;;4954967;28;20046;-85
2023/10/12 03:00:14;;;;;;;1.50;0.20;;;13.00;99.90;;;;;;4951350;28;20102;-85
2023/10/12 03:02:44;;;;;;;0.40;0.10;;;13.00;99.90;;;;;;4939125;28;20057;-85
2023/10/12 03:05:17;;;;;;;2.22;0.40;;;13.00;99.90;;;;;;4949169;28;20070;-84
2023/10/12 03:07:44;;;;;;;3.70;0.10;;;13.00;99.90;;;;;;4948223;28;20046;-84
2023/10/12 03:10:29;;;;;;;1.10;0.40;;;12.90;99.90;;;;;;4959662;28;20093;-84
2023/10/12 03:12:55;;;;;;;0.45;0.05;;;12.90;99.90;;;;;;4947880;28;20086;-84
2023/10/12 03:18:22;;;;;;;1.52;0.45;;;12.90;99.90;;;;;;4954764;28;20082;-85
2023/10/12 03:21:02;;;;;;;0.10;0.10;;;12.90;99.90;;;;;;4950391;28;20058;-85
2023/10/12 03:23:29;;;;;;;0.10;0.10;;;12.90;99.90;;;;;;4953694;28;20047;-85
2023/10/12 03:25:54;;;;;;;1.35;0.10;;;12.90;99.90;;;;;;4956715;28;20129;-85
2023/10/12 03:28:29;;;;;;;4.68;0.30;;;12.90;99.90;;;;;;4958184;28;20038;-85
2023/10/12 03:31:11;;;;;;;0.15;0.10;;;12.90;99.90;;;;;;4971415;28;20045;-85
2023/10/12 03:33:39;;;;;;;0.00;0.00;;;12.90;99.90;;;;;;4951079;28;20066;-85
2023/10/12 03:36:18;;;;;;;0.95;0.20;;;12.90;99.90;;;;;;4963109;28;20054;-85
2023/10/12 03:38:43;;;;;;;22.63;0.52;;;12.80;99.90;;;;;;4967768;28;20062;-85
2023/10/12 03:44:04;;;;;;;0.10;0.10;;;12.80;99.90;;;;;;4977871;28;20098;-85
2023/10/12 03:46:32;;;;;;;2.50;0.10;;;12.80;99.90;;;;;;4984154;28;20034;-85
2023/10/12 03:49:17;;;;;;;2.25;0.32;;;12.80;99.90;;;;;;4986932;23;20066;-66
2023/10/12 03:51:43;;;;;;;1.13;0.13;;;12.80;99.90;;;;;;4977233;28;20375;-66
2023/10/12 03:54:18;;;;;;;6.45;0.35;;;12.80;99.90;;;;;;4995411;28;20049;-66
2023/10/12 03:56:48;;;;;;;0.70;0.30;;;12.80;99.90;;;;;;4960936;28;20052;-67
2023/10/12 03:59:19;;;;;;;0.68;0.15;;;12.80;99.90;;;;;;4969178;28;20072;-67
2023/10/12 04:01:46;;;;;;;0.17;0.00;;;12.80;99.90;;;;;;4959893;28;20414;-67
2023/10/12 04:04:29;;;;;;;1.75;0.32;;;12.80;99.90;;;;;;4975516;28;20042;-67
2023/10/12 04:09:39;;;;;;;3.08;0.20;;;12.80;99.90;;;;;;4999531;28;20445;-67
2023/10/12 04:15:06;;;;;;;2.10;0.35;;;12.80;99.90;;;;;;4996386;28;20089;-67
2023/10/12 04:25:32;;;;;;;4.50;0.30;;;12.80;99.90;;;;;;4999831;28;20125;-67
2023/10/12 04:31:12;;;;;;;0.77;0.20;;;12.80;99.90;;;;;;4984542;28;20137;-66
2023/10/12 04:33:20;;;;;;;0.85;0.22;;;12.90;99.90;;;;;;4995158;28;20053;-67
2023/10/12 04:43:36;;;;;;;0.90;0.20;;;12.80;99.90;;;;;;5001565;28;20088;-68
2023/10/12 04:46:26;;;;;;;0.40;0.17;;;12.80;99.90;;;;;;4999748;28;20510;-68
2023/10/12 04:49:53;;;;;;;2.30;0.20;;;12.80;99.90;;;;;;4978095;28;20055;-68
2023/10/12 04:55:20;;;;;;;1.50;0.40;;;12.90;99.90;;;;;;4972446;28;20537;-68
2023/10/12 04:57:26;;;;;;;0.38;0.08;;;12.90;99.90;;;;;;4967201;28;20038;-68
2023/10/12 05:00:12;;;;;;;4.82;0.43;;;12.80;99.90;;;;;;4984218;28;20049;-68
2023/10/12 05:07:55;;;;;;;1.58;0.20;;;12.80;99.90;;;;;;4985429;28;20126;-68
2023/10/12 05:13:04;;;;;;;3.35;0.50;;;12.90;99.90;;;;;;4973004;28;20092;-68
2023/10/12 05:15:42;;;;;;;2.50;0.30;;;12.90;99.90;;;;;;4963449;28;20152;-68
2023/10/12 05:18:10;;;;;;;1.50;0.40;;;12.90;99.90;;;;;;4976049;28;20038;-68
2023/10/12 05:20:40;;;;;;;1.20;0.20;;;12.80;99.90;;;;;;4957565;28;20121;-68
2023/10/12 05:23:07;;;;;;;0.15;0.08;;;12.80;99.90;;;;;;4985137;28;20038;-68
2023/10/12 05:25:47;;;;;;;0.73;0.28;;;12.80;99.90;;;;;;4967567;28;20037;-68
2023/10/12 05:28:18;;;;;;;1.05;0.10;;;12.80;99.90;;;;;;4983383;28;20149;-68
2023/10/12 05:30:50;;;;;;;2.10;0.50;;;12.80;99.90;;;;;;4963845;28;20397;-67
2023/10/12 05:33:37;;;;;;;1.38;0.17;;;12.70;99.90;;;;;;4966246;28;20164;-68
2023/10/12 05:36:13;;;;;;;0.10;0.10;;;12.80;99.90;;;;;;4981234;28;20514;-68
2023/10/12 05:39:05;;;;;;;4.68;0.20;;;12.70;99.90;;;;;;4966876;28;20038;-68
2023/10/12 05:41:34;;;;;;;0.55;0.30;;;12.70;99.90;;;;;;4987491;28;20038;-68
2023/10/12 05:44:08;;;;;;;2.72;0.60;;;12.70;99.90;;;;;;4981395;28;20121;-68
2023/10/12 05:46:38;;;;;;;0.75;0.10;;;12.60;99.90;;;;;;4964610;28;20089;-68
2023/10/12 05:49:13;;;;;;;0.43;0.20;;;12.60;99.90;;;;;;4991354;28;20137;-68
2023/10/12 05:51:45;;;;;;;0.93;0.22;;;12.60;99.90;;;;;;4978685;28;20121;-68
2023/10/12 05:54:15;;;;;;;1.98;0.75;;;12.60;99.90;;;;;;4994992;28;20042;-68
2023/10/12 05:56:43;;;;;;;1.10;0.28;;;12.60;99.90;;;;;;4976697;28;20046;-67
2023/10/12 05:59:12;;;;;;;3.45;0.55;;;12.50;99.90;;;;;;4977168;28;20076;-67
2023/10/12 06:01:45;;;;;;;0.30;0.10;;;12.50;99.90;;;;;;4981416;28;20042;-66
2023/10/12 06:04:14;;;;;;;0.82;0.22;;;12.50;99.90;;;;;;4995135;28;20494;-67
2023/10/12 06:06:44;;;;;;;0.90;0.30;;;12.50;99.90;;;;;;4978113;28;20050;-67
2023/10/12 06:09:20;;;;;;;2.35;0.32;;;12.50;99.90;;;;;;4979270;28;20046;-67
2023/10/12 06:11:47;;;;;;;0.88;0.20;;;12.50;99.90;;;;;;4996380;28;20042;-67
2023/10/12 06:14:14;;;;;;;2.53;0.25;;;12.40;99.90;;;;;;5001280;28;20117;-67
2023/10/12 06:16:41;;;;;;;3.38;0.40;;;12.40;99.90;;;;;;4994218;28;20045;-68
2023/10/12 06:19:11;;;;;;;0.13;0.10;;;12.40;99.90;;;;;;4996711;28;20572;-68
2023/10/12 06:21:42;;;;;;;2.38;0.40;;;12.30;99.90;;;;;;4963007;28;20038;-67
2023/10/12 06:24:11;;;;;;;1.17;0.30;;;12.20;99.90;;;;;;4967228;28;20492;-67
2023/10/12 06:26:38;;;;;;;2.00;0.50;;;12.20;99.90;;;;;;5003957;28;20118;-67
2023/10/12 06:29:07;;;;;;;4.78;0.40;;;12.20;99.90;;;;;;4979076;28;20072;-67
2023/10/12 06:31:33;;;;;;;1.48;0.25;;;12.20;99.90;;;;;;4977733;28;20042;-67
2023/10/12 06:34:03;;;;;;;1.17;0.20;;;12.20;99.90;;;;;;4984634;28;20042;-67
2023/10/12 06:36:38;;;;;;;0.88;0.30;;;12.20;99.90;;;;;;4991990;28;20066;-67
2023/10/12 06:44:22;;;;;;;0.38;0.10;;;12.20;99.90;;;;;;4994864;28;20046;-68
2023/10/12 06:46:48;;;;;;;0.65;0.30;;;12.20;99.90;;;;;;4971267;28;20124;-67
2023/10/12 06:49:22;;;;;;;1.02;0.13;;;12.20;99.90;;;;;;4995836;28;20360;-67
2023/10/12 06:52:00;;;;;;;1.25;0.28;;;12.20;99.90;;;;;;4962266;28;20101;-68
2023/10/12 06:54:39;;;;;;;1.60;0.32;;;12.20;99.90;;;;;;4988652;28;20073;-68
2023/10/12 06:59:59;;;;;;;0.98;0.35;;;12.30;99.90;;;;;;4981238;28;20054;-68
2023/10/12 07:02:29;;;;;;;3.40;0.50;;;12.30;99.90;;;;;;4976367;28;20413;-68
2023/10/12 07:04:57;;;;;;;0.30;0.20;;;12.30;99.90;;;;;;4971194;28;20085;-68
2023/10/12 07:07:27;;;;;;;4.78;0.47;;;12.40;99.90;;;;;;4977495;28;20117;-68
2023/10/12 07:12:47;;;;;;;1.20;0.38;;;12.50;99.90;;;;;;4996934;28;20042;-68
2023/10/12 07:15:20;;;;;;;0.45;0.20;;;12.50;99.90;;;;;;4993643;28;20042;-68
2023/10/12 07:17:49;;;;;;;3.92;0.17;;;12.60;99.90;;;;;;4979460;28;20393;-67
2023/10/12 07:23:16;;;;;;;0.60;0.60;;;12.80;99.90;;;;;;4993018;28;20438;-67
2023/10/12 07:25:45;;;;;;;;;;;13.00;99.90;;;;;;4994654;28;20054;-68
2023/10/12 07:28:18;;;;;;;9.93;0.80;;;13.30;99.90;;;;;;4996411;28;20511;-68
2023/10/12 07:31:05;;;;;;;1.08;0.32;;;13.60;99.90;;;;;;4993587;28;20042;-68
2023/10/12 07:33:32;;;;;;;7.07;0.70;;;14.10;99.90;;;;;;4979591;28;20042;-68
2023/10/12 07:36:17;;;;;;;0.40;0.13;;;15.00;99.90;;;;;;4977785;28;20042;-68
2023/10/12 07:39:14;;;;;;;;;;;16.00;99.90;;;;;;4984917;28;20046;-68
2023/10/12 07:41:41;;;;;;;0.30;0.22;;;16.80;99.90;;;;;;4989451;28;20004;-68
2023/10/12 07:44:07;;;;;;;0.40;0.10;;;17.50;99.90;;;;;;4974107;28;20125;-68
2023/10/12 07:46:35;;;;;;;1.20;0.22;;;18.00;99.90;;;;;;4979925;28;20042;-68
2023/10/12 07:49:25;;;;;;;9.07;0.77;;;18.70;99.90;;;;;;4995338;28;20130;-68
2023/10/12 07:57:22;;;;;;;1.98;0.20;;;20.10;99.90;;;;;;4974041;28;20038;-68
2023/10/12 08:13:14;;;;;;;0.63;0.20;;;17.10;99.90;;;;;;5000256;28;20042;-68
2023/10/12 08:15:55;;;;;;;0.53;0.10;;;16.80;99.90;;;;;;4985102;28;20561;-68
2023/10/12 08:21:32;;;;;;;1.85;0.10;;;16.10;99.90;;;;;;4999288;28;20085;-69
2023/10/12 08:29:21;;;;;;;1.27;0.10;;;15.70;99.90;;;;;;5003362;28;20053;-69
2023/10/12 08:39:39;;;;;;;0.75;0.20;;;15.20;99.90;;;;;;4987783;28;20069;-68
2023/10/12 08:44:54;;;;;;;2.35;0.28;;;14.90;99.90;;;;;;5000056;28;20125;-69
2023/10/12 08:47:55;;;;;;;2.47;0.22;;;14.80;99.90;;;;;;5004764;28;20455;-69
2023/10/12 08:52:52;;;;;;;1.15;0.20;;;14.60;99.90;;;;;;4999585;28;20046;-69
2023/10/12 08:55:19;;;;;;;2.28;0.08;;;14.50;99.90;;;;;;5000544;28;20438;-69
2023/10/12 08:58:01;;;;;;;2.15;0.25;;;14.50;99.90;;;;;;4979509;28;20054;-69
2023/10/12 09:03:04;;;;;;;2.40;0.25;;;14.40;99.90;;;;;;5003155;28;20076;-69
2023/10/12 09:05:30;;;;;;;2.58;0.10;;;14.30;99.90;;;;;;5000033;28;20038;-69
2023/10/12 09:10:48;;;;;;;2.17;0.15;;;14.40;99.90;;;;;;4999640;28;20089;-69
2023/10/12 09:13:18;;;;;;;0.60;0.05;;;14.40;99.90;;;;;;4999720;28;20038;-69
2023/10/12 09:15:54;;;;;;;1.08;0.22;;;14.40;99.90;;;;;;4997626;28;20118;-69
2023/10/12 09:18:24;;;;;;;1.58;0.50;;;14.40;99.90;;;;;;4997593;28;20173;-69
2023/10/12 09:23:31;;;;;;;1.25;0.17;;;14.40;99.90;;;;;;5001318;28;20100;-69
2023/10/12 09:37:16;;;;;;;0.32;0.20;;;14.80;99.90;;;;;;4992117;28;20058;-69
2023/10/12 09:39:34;;;;;;;0.90;0.10;;;14.90;99.90;;;;;;4982057;28;20128;-69
2023/10/12 09:42:22;;;;;;;0.13;0.00;;;14.90;99.90;;;;;;4985556;28;20153;-69
2023/10/12 09:44:51;;;;;;;3.00;0.40;;;14.90;99.90;;;;;;4993384;28;20050;-69
2023/10/12 09:47:25;;;;;;;2.72;0.10;;;14.90;99.90;;;;;;4996407;28;20418;-69
2023/10/12 09:49:58;;;;;;;3.60;0.30;;;15.00;99.90;;;;;;5000345;28;20055;-69
2023/10/12 09:52:25;;;;;;;0.73;0.10;;;15.20;99.90;;;;;;5000983;28;20368;-69
2023/10/12 09:55:13;;;;;;;1.85;0.20;;;15.30;99.90;;;;;;4995288;28;20507;-69
2023/10/12 09:57:49;;;;;;;0.82;0.10;;;15.30;99.90;;;;;;4997522;28;20450;-69
2023/10/12 10:00:28;;;;;;;2.30;0.45;;;15.40;99.90;;;;;;5000362;28;20166;-69
2023/10/12 10:02:59;;;;;;;0.60;0.10;;;15.30;99.90;;;;;;5001973;28;20057;-69
2023/10/12 10:05:40;;;;;;;3.45;0.47;;;15.30;99.90;;;;;;4979310;28;20077;-69
2023/10/12 10:08:17;;;;;;;6.80;0.47;;;15.20;99.90;;;;;;4999749;28;20132;-69
2023/10/12 10:10:48;;;;;;;0.63;0.08;;;15.10;99.90;;;;;;5001188;28;20089;-69
2023/10/12 10:13:46;;;;;;;1.35;0.40;;;15.00;99.90;;;;;;4994372;28;20042;-69
2023/10/12 10:16:18;;;;;;;1.23;0.08;;;14.90;99.90;;;;;;4995629;28;20042;-69
2023/10/12 10:19:10;;;;;;;0.52;0.25;;;14.90;99.90;;;;;;4985813;28;20399;-69
2023/10/12 10:22:11;;;;;;;0.20;0.05;;;14.80;99.90;;;;;;4959099;28;20091;-69
2023/10/12 10:24:58;;;;;;;1.90;0.50;;;14.80;99.90;;;;;;4998409;28;20125;-68
2023/10/12 10:27:34;;;;;;;1.05;0.10;;;14.80;99.90;;;;;;5002151;28;20218;-68
2023/10/12 10:30:36;;;;;;;3.67;0.40;;;14.70;99.90;;;;;;4993760;28;20406;-68
2023/10/12 10:33:12;;;;;;;0.65;0.28;;;14.70;99.90;;;;;;4966500;28;20094;-69
2023/10/12 10:35:56;;;;;;;1.90;0.25;;;14.80;99.90;;;;;;5003289;28;20505;-69
2023/10/12 10:38:24;;;;;;;3.42;0.20;;;14.80;99.90;;;;;;5001671;28;20030;-69
2023/10/12 10:41:05;;;;;;;3.85;0.08;;;14.80;99.90;;;;;;4994349;28;20201;-69
2023/10/12 10:43:31;;;;;;;0.47;0.10;;;14.80;99.90;;;;;;4968737;28;20046;-69
2023/10/12 10:45:57;;;;;;;1.40;0.22;;;14.90;99.90;;;;;;4996941;28;20134;-69
2023/10/12 10:48:23;;;;;;;0.52;0.30;;;14.90;99.90;;;;;;4984586;28;20065;-69
2023/10/12 10:50:51;;;;;;;0.05;0.00;;;14.80;99.90;;;;;;4979560;28;20057;-69
2023/10/12 10:53:18;;;;;;;0.90;0.25;;;14.90;99.90;;;;;;4984652;28;20057;-69
2023/10/12 10:55:47;;;;;;;2.75;0.10;;;14.90;99.90;;;;;;4997319;28;20049;-69
2023/10/12 10:58:19;;;;;;;2.20;0.22;;;14.80;99.90;;;;;;5002095;28;20038;-69
2023/10/12 11:00:46;;;;;;;1.08;0.17;;;14.80;99.90;;;;;;4998000;28;20041;-69
2023/10/12 11:03:18;;;;;;;0.47;0.38;;;14.80;99.90;;;;;;5000171;28;20397;-69
2023/10/12 11:05:46;;;;;;;0.52;0.10;;;14.80;99.90;;;;;;4996409;28;20049;-69
2023/10/12 11:08:26;;;;;;;2.13;0.15;;;14.80;99.90;;;;;;4986625;28;20034;-69
2023/10/12 11:13:38;;;;;;;0.10;0.00;;;14.80;99.90;;;;;;4966053;28;20134;-69
2023/10/12 11:16:20;;;;;;;3.55;0.25;;;14.80;99.90;;;;;;4978036;28;20046;-69
2023/10/12 11:18:54;;;;;;;0.05;0.00;;;14.80;99.90;;;;;;4983064;28;20117;-69
2023/10/12 11:21:21;;;;;;;3.80;0.40;;;14.90;99.90;;;;;;4997540;28;20557;-69
2023/10/12 11:23:50;;;;;;;2.30;0.15;;;15.00;99.90;;;;;;5000110;28;20454;-69
2023/10/12 11:26:20;;;;;;;1.85;0.20;;;15.00;99.90;;;;;;4981566;28;20050;-69
2023/10/12 11:29:00;;;;;;;2.25;0.28;;;15.00;99.90;;;;;;5000914;28;20046;-70
2023/10/12 11:31:32;;;;;;;0.38;0.00;;;14.90;99.90;;;;;;4994901;28;20077;-69
2023/10/12 11:33:59;;;;;;;0.65;0.00;;;14.90;99.90;;;;;;4980695;28;20060;-69
2023/10/12 11:36:26;;;;;;;0.45;0.10;;;14.90;99.90;;;;;;4981449;28;20146;-69
2023/10/12 11:38:59;;;;;;;1.55;0.20;;;14.90;99.90;;;;;;5006763;28;20037;-69
2023/10/12 11:41:25;;;;;;;2.80;0.33;;;14.90;99.90;;;;;;4985177;28;20042;-69
2023/10/12 11:43:53;;;;;;;1.00;0.68;;;14.90;99.90;;;;;;4982045;28;20325;-69
2023/10/12 11:46:19;;;;;;;4.18;0.30;;;14.80;99.90;;;;;;4991729;28;20070;-70
2023/10/12 11:49:00;;;;;;;0.93;0.03;;;14.80;99.90;;;;;;4985543;28;20109;-70
2023/10/12 11:51:26;;;;;;;3.33;0.20;;;14.80;99.90;;;;;;5000783;28;20121;-70
2023/10/12 11:53:53;;;;;;;7.15;0.13;;;14.80;99.90;;;;;;4989193;28;20140;-70
2023/10/12 11:56:22;;;;;;;0.00;0.00;;;14.80;99.90;;;;;;4993181;28;20034;-70
2023/10/12 11:58:55;;;;;;;4.55;0.70;;;14.70;99.90;;;;;;4996896;28;20038;-70
2023/10/12 12:01:28;;;;;;;1.65;0.43;;;14.60;99.90;;;;;;4999929;28;20038;-68
2023/10/12 12:03:55;;;;;;;1.65;0.20;;;14.70;99.90;;;;;;5002024;28;20038;-70
2023/10/12 12:06:21;;;;;;;1.83;0.45;;;14.70;99.90;;;;;;4974144;28;20129;-70
2023/10/12 12:08:48;;;;;;;0.63;0.20;;;14.60;99.90;;;;;;4979968;28;20066;-70
2023/10/12 12:11:21;;;;;;;0.60;0.10;;;14.60;99.90;;;;;;4982938;28;20069;-70
2023/10/12 12:13:47;;;;;;;1.95;0.30;;;14.60;99.90;;;;;;5003202;28;20475;-70
2023/10/12 12:16:20;;;;;;;1.08;0.32;;;14.50;99.90;;;;;;4984402;28;20039;-70
2023/10/12 12:18:52;;;;;;;3.42;0.65;;;14.50;99.90;;;;;;4997911;28;20093;-70
2023/10/12 12:21:34;;;;;;;3.47;0.10;;;14.50;99.90;;;;;;4979512;28;20050;-70
2023/10/12 12:26:49;;;;;;;5.07;0.75;;;14.50;99.90;;;;;;4992072;28;20046;-70
2023/10/12 12:29:16;;;;;;;1.27;0.20;;;14.60;99.90;;;;;;4982585;28;20491;-70
2023/10/12 12:31:42;;;;;;;3.40;0.30;;;14.60;99.90;;;;;;4996895;28;20490;-69
2023/10/12 12:34:07;;;;;;;0.40;0.20;;;14.60;99.90;;;;;;4980549;28;20273;-69
2023/10/12 12:36:33;;;;;;;0.63;0.00;;;14.60;99.90;;;;;;4973087;28;20042;-69
2023/10/12 12:39:09;;;;;;;0.77;0.13;;;14.60;99.90;;;;;;4980503;28;20053;-70
2023/10/12 12:41:36;;;;;;;3.53;0.55;;;14.60;99.90;;;;;;4984265;28;20486;-70
2023/10/12 12:44:02;;;;;;;3.35;0.35;;;14.60;99.90;;;;;;4997439;28;20081;-70
2023/10/12 12:46:30;;;;;;;2.50;0.20;;;14.60;99.90;;;;;;4985409;28;20038;-71
2023/10/12 12:48:56;;;;;;;3.20;0.43;;;14.60;99.90;;;;;;4991370;28;20640;-70
2023/10/12 12:51:22;;;;;;;1.38;0.28;;;14.60;99.90;;;;;;4982112;28;20070;-71
2023/10/12 12:53:50;;;;;;;3.92;0.28;;;14.60;99.90;;;;;;4973212;28;20118;-71
2023/10/12 12:56:18;;;;;;;0.70;0.00;;;14.60;99.90;;;;;;5006626;28;20100;-71
2023/10/12 12:58:51;;;;;;;1.00;0.28;;;14.60;99.90;;;;;;4991163;28;20041;-71
2023/10/12 13:01:24;;;;;;;2.20;0.40;;;14.60;99.90;;;;;;5007959;28;20061;-69
2023/10/12 13:03:52;;;;;;;0.20;0.00;;;14.60;99.90;;;;;;5004537;28;20046;-69
2023/10/12 13:06:19;;;;;;;2.17;0.08;;;14.50;99.90;;;;;;4988582;28;20054;-70
2023/10/12 13:08:45;;;;;;;0.80;0.10;;;14.50;99.90;;;;;;4992401;28;20080;-70
2023/10/12 13:11:11;;;;;;;0.35;0.03;;;14.40;99.90;;;;;;4996067;28;20038;-70
2023/10/12 13:13:39;;;;;;;0.63;0.20;;;14.30;99.90;;;;;;4998033;28;20045;-70
2023/10/12 13:16:11;;;;;;;3.30;0.30;;;14.30;99.90;;;;;;5013269;28;20080;-70
2023/10/12 13:18:38;;;;;;;2.50;0.10;;;14.20;99.90;;;;;;4992567;28;20526;-70
2023/10/12 13:21:06;;;;;;;1.55;0.30;;;14.20;99.90;;;;;;4991709;28;20045;-70
2023/10/12 13:23:33;;;;;;;0.98;0.10;;;14.20;99.90;;;;;;5002116;28;20043;-70
2023/10/12 13:26:12;;;;;;;2.00;0.22;;;14.20;99.90;;;;;;4985212;28;20459;-70
2023/10/12 13:28:40;;;;;;;1.52;0.85;;;14.10;99.90;;;;;;5004245;28;20072;-70
2023/10/12 13:31:06;;;;;;;0.47;0.20;;;14.10;99.90;;;;;;4991546;28;20046;-71
2023/10/12 13:33:34;;;;;;;3.20;0.20;;;14.10;99.90;;;;;;4986093;28;20052;-69
2023/10/12 13:36:01;;;;;;;1.80;0.47;;;14.10;99.90;;;;;;5004274;28;20395;-69
2023/10/12 13:38:31;;;;;;;4.53;0.30;;;14.00;99.90;;;;;;4989779;28;20041;-69
2023/10/12 13:40:57;;;;;;;0.77;0.20;;;14.00;99.90;;;;;;4989027;28;20088;-70
2023/10/12 13:43:34;;;;;;;2.92;0.40;;;14.00;99.90;;;;;;4962272;28;20045;-69
2023/10/12 13:46:07;;;;;;;1.40;0.20;;;13.90;99.90;;;;;;4977843;28;20121;-67
2023/10/12 13:48:37;;;;;;;0.70;0.10;;;13.80;99.90;;;;;;5000143;28;20030;-67
2023/10/12 13:51:24;;;;;;;2.92;0.30;;;13.80;99.90;;;;;;5001304;28;20129;-68
2023/10/12 13:53:50;;;;;;;1.00;0.20;;;13.70;99.90;;;;;;4997474;28;20121;-67
2023/10/12 13:56:16;;;;;;;0.95;0.20;;;13.70;99.90;;;;;;5002711;28;20046;-67
2023/10/12 13:58:46;;;;;;;4.68;0.40;;;13.60;99.90;;;;;;4983749;28;20042;-67
2023/10/12 14:01:15;;;;;;;0.60;0.05;;;13.50;99.90;;;;;;4976951;28;20042;-67
2023/10/12 14:03:45;;;;;;;2.28;0.30;;;13.50;99.90;;;;;;4991660;28;20034;-67
2023/10/12 14:06:12;;;;;;;2.17;0.30;;;13.50;99.90;;;;;;4995870;28;20470;-67
2023/10/12 14:08:42;;;;;;;0.75;0.32;;;13.40;99.90;;;;;;4979390;28;20205;-68
2023/10/12 14:11:14;;;;;;;2.85;0.32;;;13.40;99.90;;;;;;4998362;28;20042;-67
2023/10/12 14:13:40;;;;;;;3.90;0.35;;;13.30;99.90;;;;;;4993588;28;20495;-67
2023/10/12 14:16:09;;;;;;;1.27;0.15;;;13.30;99.90;;;;;;4998088;28;20046;-67
2023/10/12 14:18:36;;;;;;;2.70;0.38;;;13.30;99.90;;;;;;4997729;28;20038;-67
2023/10/12 14:21:02;;;;;;;1.40;0.28;;;13.20;99.90;;;;;;5003127;28;20116;-67
2023/10/12 14:23:29;;;;;;;1.02;0.38;;;13.20;99.90;;;;;;4979859;28;20475;-67
2023/10/12 14:25:57;;;;;;;0.47;0.30;;;13.20;99.90;;;;;;5000594;28;20039;-67
2023/10/12 14:28:31;;;;;;;1.70;0.40;;;13.20;99.90;;;;;;4981528;28;20042;-67
2023/10/12 14:30:57;;;;;;;0.28;0.10;;;13.10;99.90;;;;;;4997758;28;20077;-67
2023/10/12 14:33:22;;;;;;;5.07;0.40;;;13.10;99.90;;;;;;4993626;28;20046;-67
2023/10/12 14:35:48;;;;;;;3.05;0.32;;;13.10;99.90;;;;;;4980244;28;20041;-67
2023/10/12 14:38:15;;;;;;;0.10;0.08;;;13.10;99.90;;;;;;4997225;28;20402;-67
2023/10/12 14:40:42;;;;;;;1.52;0.20;;;13.00;99.90;;;;;;4993480;28;20050;-66
2023/10/12 14:43:15;;;;;;;2.17;0.30;;;13.00;99.90;;;;;;4970793;28;20113;-67
2023/10/12 14:45:48;;;;;;;4.50;0.17;;;13.00;99.90;;;;;;4999703;28;20042;-68
2023/10/12 14:48:17;;;;;;;1.85;0.40;;;13.00;99.90;;;;;;4998951;28;20479;-68
2023/10/12 14:50:50;;;;;;;0.20;0.10;;;13.00;99.90;;;;;;4984261;28;20406;-68
2023/10/12 14:53:27;;;;;;;1.23;0.20;;;13.00;99.90;;;;;;4986450;28;20478;-68
2023/10/12 14:55:54;;;;;;;3.88;0.20;;;13.00;99.90;;;;;;4990182;28;20135;-68
2023/10/12 14:58:21;;;;;;;1.33;0.30;;;13.00;99.90;;;;;;4987617;28;20108;-67
2023/10/12 15:00:47;;;;;;;1.35;0.20;;;12.90;99.90;;;;;;4987240;28;20064;-67
2023/10/12 15:03:24;;;;;;;3.33;0.30;;;12.80;99.90;;;;;;4969845;28;20042;-67
2023/10/12 15:05:55;;;;;;;2.42;0.35;;;12.80;99.90;;;;;;4978742;28;20050;-67
2023/10/12 15:08:22;;;;;;;2.17;0.40;;;12.80;99.90;;;;;;4987123;28;20117;-67
2023/10/12 15:10:48;;;;;;;3.63;0.60;;;12.80;99.90;;;;;;4982259;28;20043;-67
2023/10/12 15:13:16;;;;;;;4.72;0.63;;;12.80;99.90;;;;;;4987056;28;20480;-67
2023/10/12 15:15:45;;;;;;;2.55;0.20;;;12.80;99.90;;;;;;4991506;28;20124;-67
2023/10/12 15:18:18;;;;;;;1.00;0.50;;;12.80;99.90;;;;;;4986263;28;20483;-66
2023/10/12 15:20:44;;;;;;;2.90;0.20;;;12.80;99.90;;;;;;4982580;28;20442;-67
2023/10/12 15:23:17;;;;;;;0.10;0.00;;;12.80;99.90;;;;;;4986620;28;20060;-66
2023/10/12 15:25:44;;;;;;;1.08;0.25;;;12.80;99.90;;;;;;4988776;28;20042;-66
2023/10/12 15:28:11;;;;;;;3.83;0.60;;;12.70;99.90;;;;;;4981348;28;20038;-65
2023/10/12 15:30:46;;;;;;;0.20;0.00;;;12.70;99.90;;;;;;4981708;28;20077;-66
2023/10/12 15:33:11;;;;;;;0.60;0.28;;;12.70;99.90;;;;;;4983061;28;20042;-66